sensor_id;sensor_type;location;lat;lon;timestamp;temperature;humidity
23089;DHT22;11713;48.506;8.966;2023-09-30T00:01:00;17.00;99.90
23089;DHT22;11713;48.506;8.966;2023-09-30T00:03:26;17.00;99.90
23089;DHT22;11713;48.506;8.966;2023-09-30T00:05:51;17.00;99.90
23089;DHT22;11713;48.506;8.966;2023-09-30T00:08:17;16.90;99.90
23089;DHT22;11713;48.506;8.966;2023-09-30T00:10:43;16.90;99.90
23089;DHT22;11713;48.506;8.966;2023-09-30T00:13:09;16.80;99.90
23089;DHT22;11713;48.506;8.966;2023-09-30T00:15:35;16.80;99.90
23089;DHT22;11713;48.506;8.966;2023-09-30T00:18:01;16.80;99.90
23089;DHT22;11713;48.506;8.966;2023-09-30T00:20:30;16.70;99.90
23089;DHT22;11713;48.506;8.966;2023-09-30T00:22:55;16.70;99.90
23089;DHT22;11713;48.506;8.966;2023-09-30T00:25:21;16.70;99.90
23089;DHT22;11713;48.506;8.966;2023-09-30T00:27:48;16.60;99.90
23089;DHT22;11713;48.506;8.966;2023-09-30T00:30:14;16.60;99.90
23089;DHT22;11713;48.506;8.966;2023-09-30T00:32:40;16.50;99.90
23089;DHT22;11713;48.506;8.966;2023-09-30T00:35:07;16.40;99.90
23089;DHT22;11713;48.506;8.966;2023-09-30T00:37:39;16.30;99.90
23089;DHT22;11713;48.506;8.966;2023-09-30T00:40:06;16.30;99.90
23089;DHT22;11713;48.506;8.966;2023-09-30T00:42:32;16.20;99.90
23089;DHT22;11713;48.506;8.966;2023-09-30T00:44:58;16.20;99.90
23089;DHT22;11713;48.506;8.966;2023-09-30T00:47:25;16.10;99.90
23089;DHT22;11713;48.506;8.966;2023-09-30T00:49:52;16.00;99.90
23089;DHT22;11713;48.506;8.966;2023-09-30T00:52:20;16.00;99.90
23089;DHT22;11713;48.506;8.966;2023-09-30T00:54:46;15.90;99.90
23089;DHT22;11713;48.506;8.966;2023-09-30T00:57:13;15.80;99.90
23089;DHT22;11713;48.506;8.966;2023-09-30T00:59:40;15.80;99.90
23089;DHT22;11713;48.506;8.966;2023-09-30T01:02:06;15.80;99.90
23089;DHT22;11713;48.506;8.966;2023-09-30T01:04:33;15.70;99.90
23089;DHT22;11713;48.506;8.966;2023-09-30T01:07:00;15.60;99.90
23089;DHT22;11713;48.506;8.966;2023-09-30T01:09:26;15.70;99.90
23089;DHT22;11713;48.506;8.966;2023-09-30T01:11:53;15.80;99.90
23089;DHT22;11713;48.506;8.966;2023-09-30T01:14:32;15.80;99.90
23089;DHT22;11713;48.506;8.966;2023-09-30T01:17:00;15.80;99.90
23089;DHT22;11713;48.506;8.966;2023-09-30T01:19:27;15.70;99.90
23089;DHT22;11713;48.506;8.966;2023-09-30T01:21:59;15.70;99.90
23089;DHT22;11713;48.506;8.966;2023-09-30T01:24:26;15.70;99.90
23089;DHT22;11713;48.506;8.966;2023-09-30T01:26:52;15.60;99.90
23089;DHT22;11713;48.506;8.966;2023-09-30T01:29:19;15.60;99.90
23089;DHT22;11713;48.506;8.966;2023-09-30T01:31:45;15.60;99.90
23089;DHT22;11713;48.506;8.966;2023-09-30T01:34:14;15.70;99.90
23089;DHT22;11713;48.506;8.966;2023-09-30T01:36:41;15.70;99.90
23089;DHT22;11713;48.506;8.966;2023-09-30T01:39:12;15.70;99.90
23089;DHT22;11713;48.506;8.966;2023-09-30T01:41:39;15.70;99.90
23089;DHT22;11713;48.506;8.966;2023-09-30T01:44:07;15.70;99.90
23089;DHT22;11713;48.506;8.966;2023-09-30T01:46:33;15.60;99.90
23089;DHT22;11713;48.506;8.966;2023-09-30T01:48:59;15.60;99.90
23089;DHT22;11713;48.506;8.966;2023-09-30T01:51:25;15.60;99.90
23089;DHT22;11713;48.506;8.966;2023-09-30T01:53:51;15.60;99.90
23089;DHT22;11713;48.506;8.966;2023-09-30T01:56:17;15.60;99.90
23089;DHT22;11713;48.506;8.966;2023-09-30T01:58:43;15.50;99.90
23089;DHT22;11713;48.506;8.966;2023-09-30T02:01:09;15.40;99.90
23089;DHT22;11713;48.506;8.966;2023-09-30T02:03:34;15.30;99.90
23089;DHT22;11713;48.506;8.966;2023-09-30T02:06:00;15.20;99.90
23089;DHT22;11713;48.506;8.966;2023-09-30T02:08:26;15.10;99.90
23089;DHT22;11713;48.506;8.966;2023-09-30T02:10:52;15.10;99.90
23089;DHT22;11713;48.506;8.966;2023-09-30T02:13:18;15.10;99.90
23089;DHT22;11713;48.506;8.966;2023-09-30T02:15:44;15.10;99.90
23089;DHT22;11713;48.506;8.966;2023-09-30T02:18:10;15.00;99.90
23089;DHT22;11713;48.506;8.966;2023-09-30T02:20:40;15.00;99.90
23089;DHT22;11713;48.506;8.966;2023-09-30T02:23:07;15.10;99.90
23089;DHT22;11713;48.506;8.966;2023-09-30T02:25:33;15.10;99.90
23089;DHT22;11713;48.506;8.966;2023-09-30T02:27:59;15.20;99.90
23089;DHT22;11713;48.506;8.966;2023-09-30T02:30:26;15.30;99.90
23089;DHT22;11713;48.506;8.966;2023-09-30T02:32:52;15.20;99.90
23089;DHT22;11713;48.506;8.966;2023-09-30T02:35:18;15.30;99.90
23089;DHT22;11713;48.506;8.966;2023-09-30T02:37:46;15.30;99.90
23089;DHT22;11713;48.506;8.966;2023-09-30T02:40:12;15.40;99.90
23089;DHT22;11713;48.506;8.966;2023-09-30T02:42:41;15.40;99.90
23089;DHT22;11713;48.506;8.966;2023-09-30T02:45:07;15.40;99.90
23089;DHT22;11713;48.506;8.966;2023-09-30T02:47:34;15.40;99.90
23089;DHT22;11713;48.506;8.966;2023-09-30T02:50:01;15.40;99.90
23089;DHT22;11713;48.506;8.966;2023-09-30T02:52:27;15.50;99.90
23089;DHT22;11713;48.506;8.966;2023-09-30T02:54:54;15.40;99.90
23089;DHT22;11713;48.506;8.966;2023-09-30T02:57:21;15.50;99.90
23089;DHT22;11713;48.506;8.966;2023-09-30T02:59:47;15.50;99.90
23089;DHT22;11713;48.506;8.966;2023-09-30T03:02:14;15.50;99.90
23089;DHT22;11713;48.506;8.966;2023-09-30T03:04:41;15.40;99.90
23089;DHT22;11713;48.506;8.966;2023-09-30T03:07:08;15.50;99.90
23089;DHT22;11713;48.506;8.966;2023-09-30T03:09:34;15.50;99.90
23089;DHT22;11713;48.506;8.966;2023-09-30T03:12:02;15.50;99.90
23089;DHT22;11713;48.506;8.966;2023-09-30T03:14:31;15.60;99.90
23089;DHT22;11713;48.506;8.966;2023-09-30T03:16:58;15.60;99.90
23089;DHT22;11713;48.506;8.966;2023-09-30T03:19:24;15.60;99.90
23089;DHT22;11713;48.506;8.966;2023-09-30T03:21:50;15.50;99.90
23089;DHT22;11713;48.506;8.966;2023-09-30T03:24:16;15.50;99.90
23089;DHT22;11713;48.506;8.966;2023-09-30T03:26:42;15.40;99.90
23089;DHT22;11713;48.506;8.966;2023-09-30T03:29:08;15.40;99.90
23089;DHT22;11713;48.506;8.966;2023-09-30T03:31:38;15.50;99.90
23089;DHT22;11713;48.506;8.966;2023-09-30T03:34:03;15.50;99.90
23089;DHT22;11713;48.506;8.966;2023-09-30T03:36:29;15.40;99.90
23089;DHT22;11713;48.506;8.966;2023-09-30T03:38:55;15.30;99.90
23089;DHT22;11713;48.506;8.966;2023-09-30T03:41:34;15.20;99.90
23089;DHT22;11713;48.506;8.966;2023-09-30T03:44:03;15.00;99.90
23089;DHT22;11713;48.506;8.966;2023-09-30T03:46:29;15.00;99.90
23089;DHT22;11713;48.506;8.966;2023-09-30T03:48:56;14.90;99.90
23089;DHT22;11713;48.506;8.966;2023-09-30T03:51:21;14.90;99.90
23089;DHT22;11713;48.506;8.966;2023-09-30T03:53:50;15.00;99.90
23089;DHT22;11713;48.506;8.966;2023-09-30T03:56:16;14.90;99.90
23089;DHT22;11713;48.506;8.966;2023-09-30T03:58:44;14.90;99.90
23089;DHT22;11713;48.506;8.966;2023-09-30T04:01:10;14.90;99.90
23089;DHT22;11713;48.506;8.966;2023-09-30T04:03:37;14.80;99.90
23089;DHT22;11713;48.506;8.966;2023-09-30T04:06:05;14.80;99.90
23089;DHT22;11713;48.506;8.966;2023-09-30T04:08:35;14.70;99.90
23089;DHT22;11713;48.506;8.966;2023-09-30T04:11:04;14.50;99.90
23089;DHT22;11713;48.506;8.966;2023-09-30T04:13:30;14.40;99.90
23089;DHT22;11713;48.506;8.966;2023-09-30T04:15:56;14.50;99.90
23089;DHT22;11713;48.506;8.966;2023-09-30T04:18:24;14.40;99.90
23089;DHT22;11713;48.506;8.966;2023-09-30T04:20:52;14.40;99.90
23089;DHT22;11713;48.506;8.966;2023-09-30T04:23:18;14.50;99.90
23089;DHT22;11713;48.506;8.966;2023-09-30T04:25:46;14.50;99.90
23089;DHT22;11713;48.506;8.966;2023-09-30T04:28:13;14.50;99.90
23089;DHT22;11713;48.506;8.966;2023-09-30T04:30:40;14.50;99.90
23089;DHT22;11713;48.506;8.966;2023-09-30T04:33:06;14.40;99.90
23089;DHT22;11713;48.506;8.966;2023-09-30T04:35:33;14.40;99.90
23089;DHT22;11713;48.506;8.966;2023-09-30T04:38:01;14.40;99.90
23089;DHT22;11713;48.506;8.966;2023-09-30T04:40:27;14.40;99.90
23089;DHT22;11713;48.506;8.966;2023-09-30T04:42:53;14.50;99.90
23089;DHT22;11713;48.506;8.966;2023-09-30T04:45:27;14.50;99.90
23089;DHT22;11713;48.506;8.966;2023-09-30T04:47:54;14.50;99.90
23089;DHT22;11713;48.506;8.966;2023-09-30T04:50:23;14.50;99.90
23089;DHT22;11713;48.506;8.966;2023-09-30T04:52:50;14.40;99.90
23089;DHT22;11713;48.506;8.966;2023-09-30T04:55:17;14.40;99.90
23089;DHT22;11713;48.506;8.966;2023-09-30T04:57:45;14.40;99.90
23089;DHT22;11713;48.506;8.966;2023-09-30T05:00:16;14.30;99.90
23089;DHT22;11713;48.506;8.966;2023-09-30T05:02:44;14.30;99.90
23089;DHT22;11713;48.506;8.966;2023-09-30T05:05:14;14.40;99.90
23089;DHT22;11713;48.506;8.966;2023-09-30T05:07:42;14.40;99.90
23089;DHT22;11713;48.506;8.966;2023-09-30T05:10:11;14.40;99.90
23089;DHT22;11713;48.506;8.966;2023-09-30T05:12:42;14.40;99.90
23089;DHT22;11713;48.506;8.966;2023-09-30T05:15:15;14.40;99.90
23089;DHT22;11713;48.506;8.966;2023-09-30T05:17:45;14.40;99.90
23089;DHT22;11713;48.506;8.966;2023-09-30T05:20:11;14.50;99.90
23089;DHT22;11713;48.506;8.966;2023-09-30T05:22:39;14.50;99.90
23089;DHT22;11713;48.506;8.966;2023-09-30T05:25:07;14.60;99.90
23089;DHT22;11713;48.506;8.966;2023-09-30T05:27:33;14.70;99.90
23089;DHT22;11713;48.506;8.966;2023-09-30T05:29:59;14.70;99.90
23089;DHT22;11713;48.506;8.966;2023-09-30T05:32:25;14.70;99.90
23089;DHT22;11713;48.506;8.966;2023-09-30T05:34:52;14.80;99.90
23089;DHT22;11713;48.506;8.966;2023-09-30T05:37:19;14.80;99.90
23089;DHT22;11713;48.506;8.966;2023-09-30T05:39:47;14.90;99.90
23089;DHT22;11713;48.506;8.966;2023-09-30T05:42:16;14.90;99.90
23089;DHT22;11713;48.506;8.966;2023-09-30T05:44:44;14.90;99.90
23089;DHT22;11713;48.506;8.966;2023-09-30T05:47:11;14.80;99.90
23089;DHT22;11713;48.506;8.966;2023-09-30T05:49:37;14.70;99.90
23089;DHT22;11713;48.506;8.966;2023-09-30T05:52:03;14.60;99.90
23089;DHT22;11713;48.506;8.966;2023-09-30T05:54:30;14.60;99.90
23089;DHT22;11713;48.506;8.966;2023-09-30T05:56:56;14.60;99.90
23089;DHT22;11713;48.506;8.966;2023-09-30T05:59:22;14.50;99.90
23089;DHT22;11713;48.506;8.966;2023-09-30T06:01:50;14.40;99.90
23089;DHT22;11713;48.506;8.966;2023-09-30T06:04:16;14.50;99.90
23089;DHT22;11713;48.506;8.966;2023-09-30T06:06:42;14.50;99.90
23089;DHT22;11713;48.506;8.966;2023-09-30T06:09:09;14.50;99.90
23089;DHT22;11713;48.506;8.966;2023-09-30T06:11:35;14.50;99.90
23089;DHT22;11713;48.506;8.966;2023-09-30T06:14:02;14.40;99.90
23089;DHT22;11713;48.506;8.966;2023-09-30T06:16:28;14.50;99.90
23089;DHT22;11713;48.506;8.966;2023-09-30T06:18:54;14.50;99.90
23089;DHT22;11713;48.506;8.966;2023-09-30T06:21:25;14.50;99.90
23089;DHT22;11713;48.506;8.966;2023-09-30T06:23:55;14.50;99.90
23089;DHT22;11713;48.506;8.966;2023-09-30T06:26:21;14.50;99.90
23089;DHT22;11713;48.506;8.966;2023-09-30T06:28:47;14.50;99.90
23089;DHT22;11713;48.506;8.966;2023-09-30T06:31:14;14.50;99.90
23089;DHT22;11713;48.506;8.966;2023-09-30T06:36:19;14.50;99.90
23089;DHT22;11713;48.506;8.966;2023-09-30T06:38:52;14.60;99.90
23089;DHT22;11713;48.506;8.966;2023-09-30T06:41:29;14.60;99.90
23089;DHT22;11713;48.506;8.966;2023-09-30T06:43:56;14.70;99.90
23089;DHT22;11713;48.506;8.966;2023-09-30T06:46:23;14.70;99.90
23089;DHT22;11713;48.506;8.966;2023-09-30T06:48:49;14.70;99.90
23089;DHT22;11713;48.506;8.966;2023-09-30T06:51:18;14.70;99.90
23089;DHT22;11713;48.506;8.966;2023-09-30T06:53:43;14.60;99.90
23089;DHT22;11713;48.506;8.966;2023-09-30T06:56:11;14.70;99.90
23089;DHT22;11713;48.506;8.966;2023-09-30T06:58:38;14.70;99.90
23089;DHT22;11713;48.506;8.966;2023-09-30T07:01:04;14.80;99.90
23089;DHT22;11713;48.506;8.966;2023-09-30T07:03:30;14.90;99.90
23089;DHT22;11713;48.506;8.966;2023-09-30T07:05:56;15.00;99.90
23089;DHT22;11713;48.506;8.966;2023-09-30T07:08:27;15.10;99.90
23089;DHT22;11713;48.506;8.966;2023-09-30T07:10:54;15.20;99.90
23089;DHT22;11713;48.506;8.966;2023-09-30T07:13:21;15.20;99.90
23089;DHT22;11713;48.506;8.966;2023-09-30T07:15:49;15.10;99.90
23089;DHT22;11713;48.506;8.966;2023-09-30T07:18:17;15.20;99.90
23089;DHT22;11713;48.506;8.966;2023-09-30T07:20:50;15.20;99.90
23089;DHT22;11713;48.506;8.966;2023-09-30T07:23:19;15.30;99.90
23089;DHT22;11713;48.506;8.966;2023-09-30T07:25:49;15.40;99.90
23089;DHT22;11713;48.506;8.966;2023-09-30T07:28:15;15.40;99.90
23089;DHT22;11713;48.506;8.966;2023-09-30T07:30:44;15.40;99.90
23089;DHT22;11713;48.506;8.966;2023-09-30T07:33:19;15.50;99.90
23089;DHT22;11713;48.506;8.966;2023-09-30T07:35:47;15.60;99.90
23089;DHT22;11713;48.506;8.966;2023-09-30T07:38:14;15.70;99.90
23089;DHT22;11713;48.506;8.966;2023-09-30T07:40:40;15.80;99.90
23089;DHT22;11713;48.506;8.966;2023-09-30T07:43:07;15.90;99.90
23089;DHT22;11713;48.506;8.966;2023-09-30T07:45:33;16.00;99.90
23089;DHT22;11713;48.506;8.966;2023-09-30T07:47:59;16.10;99.90
23089;DHT22;11713;48.506;8.966;2023-09-30T07:50:25;16.10;99.90
23089;DHT22;11713;48.506;8.966;2023-09-30T07:52:51;16.10;99.90
23089;DHT22;11713;48.506;8.966;2023-09-30T07:55:18;16.20;99.90
23089;DHT22;11713;48.506;8.966;2023-09-30T07:57:45;16.30;99.90
23089;DHT22;11713;48.506;8.966;2023-09-30T08:00:12;16.40;99.90
23089;DHT22;11713;48.506;8.966;2023-09-30T08:02:41;16.40;99.90
23089;DHT22;11713;48.506;8.966;2023-09-30T08:05:08;16.40;99.90
23089;DHT22;11713;48.506;8.966;2023-09-30T08:07:34;16.50;99.90
23089;DHT22;11713;48.506;8.966;2023-09-30T08:10:00;16.60;99.90
23089;DHT22;11713;48.506;8.966;2023-09-30T08:12:26;16.80;99.90
23089;DHT22;11713;48.506;8.966;2023-09-30T08:14:52;16.90;99.90
23089;DHT22;11713;48.506;8.966;2023-09-30T08:17:18;17.10;99.90
23089;DHT22;11713;48.506;8.966;2023-09-30T08:19:44;17.30;99.90
23089;DHT22;11713;48.506;8.966;2023-09-30T08:22:10;17.40;99.90
23089;DHT22;11713;48.506;8.966;2023-09-30T08:24:36;17.50;99.90
23089;DHT22;11713;48.506;8.966;2023-09-30T08:27:02;17.60;99.90
23089;DHT22;11713;48.506;8.966;2023-09-30T08:29:28;17.70;99.90
23089;DHT22;11713;48.506;8.966;2023-09-30T08:31:54;17.80;99.90
23089;DHT22;11713;48.506;8.966;2023-09-30T08:34:20;17.90;99.90
23089;DHT22;11713;48.506;8.966;2023-09-30T08:36:47;18.10;99.90
23089;DHT22;11713;48.506;8.966;2023-09-30T08:39:13;18.20;99.90
23089;DHT22;11713;48.506;8.966;2023-09-30T08:41:39;18.30;99.90
23089;DHT22;11713;48.506;8.966;2023-09-30T08:44:05;18.30;99.90
23089;DHT22;11713;48.506;8.966;2023-09-30T08:46:33;18.30;99.90
23089;DHT22;11713;48.506;8.966;2023-09-30T08:49:03;18.40;99.90
23089;DHT22;11713;48.506;8.966;2023-09-30T08:51:30;18.50;99.90
23089;DHT22;11713;48.506;8.966;2023-09-30T08:53:57;18.60;99.90
23089;DHT22;11713;48.506;8.966;2023-09-30T08:56:27;18.70;99.90
23089;DHT22;11713;48.506;8.966;2023-09-30T08:58:57;18.80;99.90
23089;DHT22;11713;48.506;8.966;2023-09-30T09:01:28;18.80;99.90
23089;DHT22;11713;48.506;8.966;2023-09-30T09:03:56;19.00;99.90
23089;DHT22;11713;48.506;8.966;2023-09-30T09:06:23;19.10;99.90
23089;DHT22;11713;48.506;8.966;2023-09-30T09:08:50;19.20;99.90
23089;DHT22;11713;48.506;8.966;2023-09-30T09:11:17;19.30;99.90
23089;DHT22;11713;48.506;8.966;2023-09-30T09:13:53;19.40;99.90
23089;DHT22;11713;48.506;8.966;2023-09-30T09:16:23;19.50;99.90
23089;DHT22;11713;48.506;8.966;2023-09-30T09:18:49;19.50;99.90
23089;DHT22;11713;48.506;8.966;2023-09-30T09:21:21;19.50;99.90
23089;DHT22;11713;48.506;8.966;2023-09-30T09:23:49;19.60;99.90
23089;DHT22;11713;48.506;8.966;2023-09-30T09:26:28;19.60;99.90
23089;DHT22;11713;48.506;8.966;2023-09-30T09:29:02;19.60;99.90
23089;DHT22;11713;48.506;8.966;2023-09-30T09:31:33;19.70;99.90
23089;DHT22;11713;48.506;8.966;2023-09-30T09:34:01;19.60;99.90
23089;DHT22;11713;48.506;8.966;2023-09-30T09:39:06;19.70;99.90
23089;DHT22;11713;48.506;8.966;2023-09-30T09:41:32;19.80;99.90
23089;DHT22;11713;48.506;8.966;2023-09-30T09:43:59;19.90;99.90
23089;DHT22;11713;48.506;8.966;2023-09-30T09:46:35;20.00;99.90
23089;DHT22;11713;48.506;8.966;2023-09-30T09:49:06;20.20;99.90
23089;DHT22;11713;48.506;8.966;2023-09-30T09:51:38;20.30;99.90
23089;DHT22;11713;48.506;8.966;2023-09-30T09:54:14;20.50;99.90
23089;DHT22;11713;48.506;8.966;2023-09-30T09:56:46;20.40;99.90
23089;DHT22;11713;48.506;8.966;2023-09-30T09:59:13;20.60;99.90
23089;DHT22;11713;48.506;8.966;2023-09-30T10:01:40;20.70;99.90
23089;DHT22;11713;48.506;8.966;2023-09-30T10:04:12;20.80;99.90
23089;DHT22;11713;48.506;8.966;2023-09-30T10:06:45;20.80;99.90
23089;DHT22;11713;48.506;8.966;2023-09-30T10:09:15;20.90;99.90
23089;DHT22;11713;48.506;8.966;2023-09-30T10:11:43;21.00;99.90
23089;DHT22;11713;48.506;8.966;2023-09-30T10:14:33;20.90;99.90
23089;DHT22;11713;48.506;8.966;2023-09-30T10:16:59;21.10;99.90
23089;DHT22;11713;48.506;8.966;2023-09-30T10:19:25;21.30;99.90
23089;DHT22;11713;48.506;8.966;2023-09-30T10:24:58;21.40;99.90
23089;DHT22;11713;48.506;8.966;2023-09-30T10:36:01;21.20;99.90
23089;DHT22;11713;48.506;8.966;2023-09-30T10:40:50;21.40;99.90
23089;DHT22;11713;48.506;8.966;2023-09-30T10:43:33;21.40;99.90
23089;DHT22;11713;48.506;8.966;2023-09-30T10:48:51;21.50;99.90
23089;DHT22;11713;48.506;8.966;2023-09-30T10:51:19;21.70;99.90
23089;DHT22;11713;48.506;8.966;2023-09-30T10:53:54;21.90;99.90
23089;DHT22;11713;48.506;8.966;2023-09-30T10:56:32;22.10;99.90
23089;DHT22;11713;48.506;8.966;2023-09-30T10:58:58;22.10;99.90
23089;DHT22;11713;48.506;8.966;2023-09-30T11:01:24;22.10;99.90
23089;DHT22;11713;48.506;8.966;2023-09-30T11:03:58;22.10;99.90
23089;DHT22;11713;48.506;8.966;2023-09-30T11:06:25;22.20;99.90
23089;DHT22;11713;48.506;8.966;2023-09-30T11:09:00;22.20;99.90
23089;DHT22;11713;48.506;8.966;2023-09-30T11:11:46;22.40;99.90
23089;DHT22;11713;48.506;8.966;2023-09-30T11:14:30;22.50;99.90
23089;DHT22;11713;48.506;8.966;2023-09-30T11:17:01;22.30;99.90
23089;DHT22;11713;48.506;8.966;2023-09-30T11:19:41;22.40;99.90
23089;DHT22;11713;48.506;8.966;2023-09-30T11:22:20;22.40;99.90
23089;DHT22;11713;48.506;8.966;2023-09-30T11:24:49;22.40;99.90
23089;DHT22;11713;48.506;8.966;2023-09-30T11:27:24;22.40;99.90
23089;DHT22;11713;48.506;8.966;2023-09-30T11:29:53;22.60;99.90
23089;DHT22;11713;48.506;8.966;2023-09-30T11:32:24;22.60;99.90
23089;DHT22;11713;48.506;8.966;2023-09-30T11:34:52;22.50;99.90
23089;DHT22;11713;48.506;8.966;2023-09-30T11:37:19;22.30;99.90
23089;DHT22;11713;48.506;8.966;2023-09-30T11:39:45;22.30;99.90
23089;DHT22;11713;48.506;8.966;2023-09-30T11:42:18;22.30;99.90
23089;DHT22;11713;48.506;8.966;2023-09-30T11:44:46;22.30;99.90
23089;DHT22;11713;48.506;8.966;2023-09-30T11:47:16;22.30;99.90
23089;DHT22;11713;48.506;8.966;2023-09-30T11:49:43;22.30;99.90
23089;DHT22;11713;48.506;8.966;2023-09-30T11:52:14;22.50;99.90
23089;DHT22;11713;48.506;8.966;2023-09-30T11:54:44;22.70;99.90
23089;DHT22;11713;48.506;8.966;2023-09-30T11:57:15;23.00;99.90
23089;DHT22;11713;48.506;8.966;2023-09-30T11:59:41;23.10;99.90
23089;DHT22;11713;48.506;8.966;2023-09-30T12:02:12;22.90;99.90
23089;DHT22;11713;48.506;8.966;2023-09-30T12:04:39;22.80;99.90
23089;DHT22;11713;48.506;8.966;2023-09-30T12:07:05;22.80;99.90
23089;DHT22;11713;48.506;8.966;2023-09-30T12:09:33;22.80;99.90
23089;DHT22;11713;48.506;8.966;2023-09-30T12:12:03;22.60;99.90
23089;DHT22;11713;48.506;8.966;2023-09-30T12:14:29;22.40;99.90
23089;DHT22;11713;48.506;8.966;2023-09-30T12:16:56;22.50;99.90
23089;DHT22;11713;48.506;8.966;2023-09-30T12:19:22;22.70;99.90
23089;DHT22;11713;48.506;8.966;2023-09-30T12:21:48;22.50;99.90
23089;DHT22;11713;48.506;8.966;2023-09-30T12:24:18;22.40;99.90
23089;DHT22;11713;48.506;8.966;2023-09-30T12:26:50;22.40;99.90
23089;DHT22;11713;48.506;8.966;2023-09-30T12:29:21;22.60;99.90
23089;DHT22;11713;48.506;8.966;2023-09-30T12:31:48;22.80;99.90
23089;DHT22;11713;48.506;8.966;2023-09-30T12:34:15;22.80;99.90
23089;DHT22;11713;48.506;8.966;2023-09-30T12:36:42;22.90;99.90
23089;DHT22;11713;48.506;8.966;2023-09-30T12:39:09;23.00;99.90
23089;DHT22;11713;48.506;8.966;2023-09-30T12:41:38;23.10;99.90
23089;DHT22;11713;48.506;8.966;2023-09-30T12:44:09;23.30;99.90
23089;DHT22;11713;48.506;8.966;2023-09-30T12:46:37;23.50;99.90
23089;DHT22;11713;48.506;8.966;2023-09-30T12:49:09;23.30;99.90
23089;DHT22;11713;48.506;8.966;2023-09-30T12:51:39;23.10;99.90
23089;DHT22;11713;48.506;8.966;2023-09-30T12:54:11;23.10;99.90
23089;DHT22;11713;48.506;8.966;2023-09-30T12:56:46;23.00;99.90
23089;DHT22;11713;48.506;8.966;2023-09-30T12:59:14;22.80;99.90
23089;DHT22;11713;48.506;8.966;2023-09-30T13:01:49;22.70;99.90
23089;DHT22;11713;48.506;8.966;2023-09-30T13:04:17;22.70;99.90
23089;DHT22;11713;48.506;8.966;2023-09-30T13:06:44;22.70;99.90
23089;DHT22;11713;48.506;8.966;2023-09-30T13:09:11;22.80;99.90
23089;DHT22;11713;48.506;8.966;2023-09-30T13:11:37;22.90;99.90
23089;DHT22;11713;48.506;8.966;2023-09-30T13:14:04;23.00;99.90
23089;DHT22;11713;48.506;8.966;2023-09-30T13:16:32;23.10;99.90
23089;DHT22;11713;48.506;8.966;2023-09-30T13:19:05;23.30;99.90
23089;DHT22;11713;48.506;8.966;2023-09-30T13:21:31;23.50;99.90
23089;DHT22;11713;48.506;8.966;2023-09-30T13:23:59;23.80;99.90
23089;DHT22;11713;48.506;8.966;2023-09-30T13:26:26;24.10;99.90
23089;DHT22;11713;48.506;8.966;2023-09-30T13:28:54;24.40;99.90
23089;DHT22;11713;48.506;8.966;2023-09-30T13:31:24;24.70;99.90
23089;DHT22;11713;48.506;8.966;2023-09-30T13:33:52;24.70;99.90
23089;DHT22;11713;48.506;8.966;2023-09-30T13:36:18;24.50;99.90
23089;DHT22;11713;48.506;8.966;2023-09-30T13:38:44;24.40;99.90
23089;DHT22;11713;48.506;8.966;2023-09-30T13:41:14;24.40;99.90
23089;DHT22;11713;48.506;8.966;2023-09-30T13:43:44;24.60;99.90
23089;DHT22;11713;48.506;8.966;2023-09-30T13:46:11;24.60;99.90
23089;DHT22;11713;48.506;8.966;2023-09-30T13:48:38;24.60;99.90
23089;DHT22;11713;48.506;8.966;2023-09-30T13:51:08;24.80;99.90
23089;DHT22;11713;48.506;8.966;2023-09-30T13:53:34;25.00;99.90
23089;DHT22;11713;48.506;8.966;2023-09-30T13:56:00;24.90;99.90
23089;DHT22;11713;48.506;8.966;2023-09-30T13:58:25;24.90;99.90
23089;DHT22;11713;48.506;8.966;2023-09-30T14:00:51;25.00;99.90
23089;DHT22;11713;48.506;8.966;2023-09-30T14:03:22;25.20;99.90
23089;DHT22;11713;48.506;8.966;2023-09-30T14:05:53;25.30;99.90
23089;DHT22;11713;48.506;8.966;2023-09-30T14:08:20;25.10;99.90
23089;DHT22;11713;48.506;8.966;2023-09-30T14:10:48;25.10;99.90
23089;DHT22;11713;48.506;8.966;2023-09-30T14:13:19;25.10;99.90
23089;DHT22;11713;48.506;8.966;2023-09-30T14:15:47;24.90;99.90
23089;DHT22;11713;48.506;8.966;2023-09-30T14:18:15;24.50;99.90
23089;DHT22;11713;48.506;8.966;2023-09-30T14:20:41;23.90;99.90
23089;DHT22;11713;48.506;8.966;2023-09-30T14:23:06;23.60;99.90
23089;DHT22;11713;48.506;8.966;2023-09-30T14:25:32;23.60;99.90
23089;DHT22;11713;48.506;8.966;2023-09-30T14:27:58;23.30;99.90
23089;DHT22;11713;48.506;8.966;2023-09-30T14:30:25;23.10;99.90
23089;DHT22;11713;48.506;8.966;2023-09-30T14:32:51;23.10;99.90
23089;DHT22;11713;48.506;8.966;2023-09-30T14:35:17;23.20;99.90
23089;DHT22;11713;48.506;8.966;2023-09-30T14:37:43;23.20;99.90
23089;DHT22;11713;48.506;8.966;2023-09-30T14:40:12;23.00;99.90
23089;DHT22;11713;48.506;8.966;2023-09-30T14:42:39;23.00;99.90
23089;DHT22;11713;48.506;8.966;2023-09-30T14:45:05;23.20;99.90
23089;DHT22;11713;48.506;8.966;2023-09-30T14:47:31;23.20;99.90
23089;DHT22;11713;48.506;8.966;2023-09-30T14:49:57;23.30;99.90
23089;DHT22;11713;48.506;8.966;2023-09-30T14:52:27;23.40;99.90
23089;DHT22;11713;48.506;8.966;2023-09-30T14:54:53;23.40;99.90
23089;DHT22;11713;48.506;8.966;2023-09-30T14:57:19;23.50;99.90
23089;DHT22;11713;48.506;8.966;2023-09-30T14:59:46;23.60;99.90
23089;DHT22;11713;48.506;8.966;2023-09-30T15:02:12;23.80;99.90
23089;DHT22;11713;48.506;8.966;2023-09-30T15:04:39;23.70;99.90
23089;DHT22;11713;48.506;8.966;2023-09-30T15:07:05;23.70;99.90
23089;DHT22;11713;48.506;8.966;2023-09-30T15:09:31;23.60;99.90
23089;DHT22;11713;48.506;8.966;2023-09-30T15:12:02;23.70;99.90
23089;DHT22;11713;48.506;8.966;2023-09-30T15:14:28;23.90;99.90
23089;DHT22;11713;48.506;8.966;2023-09-30T15:16:56;24.10;99.90
23089;DHT22;11713;48.506;8.966;2023-09-30T15:19:22;24.10;99.90
23089;DHT22;11713;48.506;8.966;2023-09-30T15:21:48;24.10;99.90
23089;DHT22;11713;48.506;8.966;2023-09-30T15:24:15;24.20;99.90
23089;DHT22;11713;48.506;8.966;2023-09-30T15:26:42;24.20;99.90
23089;DHT22;11713;48.506;8.966;2023-09-30T15:29:08;24.20;99.90
23089;DHT22;11713;48.506;8.966;2023-09-30T15:31:36;24.20;99.90
23089;DHT22;11713;48.506;8.966;2023-09-30T15:34:01;24.00;99.90
23089;DHT22;11713;48.506;8.966;2023-09-30T15:36:28;23.90;99.90
23089;DHT22;11713;48.506;8.966;2023-09-30T15:38:57;23.90;99.90
23089;DHT22;11713;48.506;8.966;2023-09-30T15:41:24;23.80;99.90
23089;DHT22;11713;48.506;8.966;2023-09-30T15:43:54;23.60;99.90
23089;DHT22;11713;48.506;8.966;2023-09-30T15:46:23;23.50;99.90
23089;DHT22;11713;48.506;8.966;2023-09-30T15:48:50;23.40;99.90
23089;DHT22;11713;48.506;8.966;2023-09-30T15:51:16;23.20;99.90
23089;DHT22;11713;48.506;8.966;2023-09-30T15:53:41;23.10;99.90
23089;DHT22;11713;48.506;8.966;2023-09-30T15:56:07;23.00;99.90